Aurora Center, South Dakota
Current Conditions -  °F | °C
As of 6:53 AM on Thursday 23 Oct 2014 (Local Time) from KMHE Reporting Station
Clear Clear  
Wind Chill: 43°   Ceiling: Unl
Heat Index: 43°   Visibility: 10mi
Dew Point: 41°   Wind: 3mph
Humidity: 93%   Direction: 180°S
Pressure: 30"   Gusts: NA
Location:  43.5853°N, 98.5581°W
Report Text: KMHE 231153Z AUTO 18003KT 10SM CLR 06/05 A3000 RMK AO2 SLP164 70028 T00610050 10094 20056 52001 $
Loading
Personal Weather Stations






























Interactive Weather Map
Tropical Storm Tracking
New forecast layout! Learn more

10-Day Weather Forecast

Advertisements
Track Severe Weather on mobile